Terminal Aerodrome Forecast
Issued by NWS Sioux Falls, SD

Home | Current Version | Previous Version | Graphics & Text | Print | Product List | Glossary On
Versions: 1 2 3 4 5 6 7 8 9 10 11 12 13
000
FTUS43 KFSD 261724
TAFHON
TAF
KHON 261724Z 2618/2718 02007KT P6SM FEW250
     FM270000 00000KT P6SM SKC
     FM270700 16006KT P6SM SKC
     FM271300 16011KT P6SM FEW250
     FM271500 17014G23KT P6SM FEW200=

USA.gov is the U.S. government's official web portal to all federal, state and local government web resources and services.